Disclaimer

Please do not use the information listed here in-flight or in-navigation, as they are not provided to us by the airports but are provided by volunteers, so they might be outdated.

Search


Regions


Airport information page

Radio informations:
Tower (TWR) - 122.8 MHz
Approach (APP) - 122.8 MHz

Airport informations:
Latitude: 09° 50' 04.23" N
Longitude: 078° 05' 36.16" E
Elevation: 459 feet - 140 meters
Operating hours: N/A
Operating agency: Civil government, landing fees and diplomatic clearance may be required
Timezone: UTC+5:30
Fuel: Jet fuel avaiable but type is unknown.

Runway information:
09/27 - 5990 x 148 feet< - >1826 x 45 meters
13/31 - 4603 x 148 feet< - >1403 x 45 meters

Recent METARs:
VOMD 211000Z 36006KT 6000 FEW020 SCT100 33/22 Q1008 NOSIG
VOMD 211030Z 02004KT 6000 FEW020 SCT100 33/22 Q1008 NOSIG
VOMD 211130Z 02003KT 6000 FEW020 BKN100 32/22 Q1009 BECMG 5000 HZ

Airport on the map: